Main page
METAR-TAF:

METAR-TAF

Airports :

Dubai International Airport

Dubai, United Arab Emirates

latitude: 25-15-10N, longitude: 055-21-52E, elevation: 8 m

Current weather observation

The report was made 29 minutes ago, at 00:00 UTC
Wind 5 kt from variable directions
Temperature 17°C
Humidity 68%
Pressure 1016 hPa
Visibility 10 km or more
no clouds below 1500 m and no cumulonimbus

METAR: OMDB 230000Z VRB05KT CAVOK 17/11 Q1016 NOSIG

Time: 04:29 (00:29 UTC)

Forecast

The report was made 1 hour and 38 minutes ago, at 22:51 UTC
Forecast valid from 23 at 00 UTC to 24 at 06 UTC
Wind 7 kt from the South
Visibility 10 km or more
Few clouds at a height of 3000 ft
Becoming
from 23 at 06 UTC to 23 at 08 UTC
Wind 10 kt from the West/Northwest
Becoming
from 23 at 15 UTC to 23 at 17 UTC
Wind 5 kt from the East/Southeast
Probability 30%
from 24 at 01 UTC to 24 at 04 UTC
Visibility: 4000 m
haze

TAF: OMDB 222251Z 2300/2406 18007KT 9999 FEW030 BECMG 2306/2308 29010KT BECMG 2315/2317 12005KT PROB30 2401/2404 4000 HZ

Weather observations and forecasts of more than 4000 airports (METAR and TAF reports).

The available stations are represented by yellow and red dots on the map.

Hover mouse over dot to see the name of the station.

Then click to see weather observations and forecasts.

To change the map : click on the green buttons with a black cross to zoom in, on the green button with a dash to zoom out, or on the green arrows for adjacent maps.


METAR-TAF: